createdAt,value
2023-01-12T00:00:20.191Z,31.8
2023-01-12T00:05:17.220Z,31.8
2023-01-12T00:10:17.213Z,31.8
2023-01-12T00:15:20.201Z,31.9
2023-01-12T00:20:20.145Z,31.9
2023-01-12T00:25:20.218Z,31.9
2023-01-12T00:30:17.208Z,31.9
2023-01-12T00:35:20.180Z,31.9
2023-01-12T00:40:20.138Z,31.9
2023-01-12T00:45:17.262Z,31.9
2023-01-12T00:50:19.351Z,31.9
2023-01-12T00:55:20.216Z,31.9
2023-01-12T01:00:17.181Z,31.9
2023-01-12T01:05:17.103Z,31.9
2023-01-12T01:10:20.197Z,31.9
2023-01-12T01:15:17.285Z,31.9
2023-01-12T01:20:20.184Z,31.8
2023-01-12T01:25:20.224Z,31.9
2023-01-12T01:30:20.230Z,31.9
2023-01-12T01:35:17.220Z,31.9
2023-01-12T01:40:17.117Z,31.9
2023-01-12T01:45:17.069Z,31.9
2023-01-12T01:50:17.240Z,32.0
2023-01-12T01:55:20.277Z,31.9
2023-01-12T02:00:17.286Z,31.9
2023-01-12T02:05:20.305Z,31.8
2023-01-12T02:10:20.225Z,31.8
2023-01-12T02:15:17.276Z,31.8
2023-01-12T02:20:20.249Z,31.7
2023-01-12T02:25:20.262Z,31.7
2023-01-12T02:30:17.286Z,31.6
2023-01-12T02:35:17.272Z,31.6
2023-01-12T02:40:20.288Z,31.6
2023-01-12T02:45:20.305Z,31.6
2023-01-12T02:50:20.233Z,31.7
2023-01-12T02:55:20.227Z,31.7
2023-01-12T03:00:17.235Z,31.6
2023-01-12T03:05:17.194Z,31.7
2023-01-12T03:10:20.210Z,31.7
2023-01-12T03:15:20.333Z,31.7
2023-01-12T03:20:20.294Z,31.7
2023-01-12T03:25:17.305Z,31.7
2023-01-12T03:30:17.291Z,31.7
2023-01-12T03:35:17.331Z,31.7
2023-01-12T03:40:20.273Z,31.7
2023-01-12T03:45:17.124Z,31.7
2023-01-12T03:50:20.261Z,31.6
2023-01-12T03:55:20.284Z,31.7
2023-01-12T04:00:17.317Z,31.6
2023-01-12T04:05:17.308Z,31.7
2023-01-12T04:10:20.373Z,31.7
2023-01-12T04:15:20.356Z,31.7
2023-01-12T04:20:17.282Z,31.7
2023-01-12T04:25:17.394Z,31.7
2023-01-12T04:30:20.345Z,31.7
2023-01-12T04:35:20.327Z,31.7
2023-01-12T04:40:17.193Z,31.7
2023-01-12T04:45:17.354Z,31.8
2023-01-12T04:50:20.312Z,31.9
2023-01-12T04:55:20.388Z,31.9
2023-01-12T05:00:16.586Z,31.8
2023-01-12T05:05:16.591Z,31.8
2023-01-12T05:10:19.598Z,31.8
2023-01-12T05:15:19.629Z,31.8
2023-01-12T05:20:16.669Z,31.8
2023-01-12T05:25:16.594Z,31.8
2023-01-12T05:30:19.615Z,31.8
2023-01-12T05:35:19.575Z,31.9
2023-01-12T05:40:16.660Z,31.8
2023-01-12T05:45:16.614Z,31.9
2023-01-12T05:50:19.616Z,31.9
2023-01-12T05:55:19.636Z,31.9
2023-01-12T06:00:16.619Z,31.9
2023-01-12T06:05:19.673Z,31.9
2023-01-12T06:10:19.591Z,31.9
2023-01-12T06:15:16.645Z,31.9
2023-01-12T06:20:19.663Z,31.9
2023-01-12T06:25:19.583Z,31.9
2023-01-12T06:30:16.601Z,31.9
2023-01-12T06:35:19.568Z,32.0
2023-01-12T06:40:16.682Z,32.0
2023-01-12T06:45:19.601Z,32.0
2023-01-12T06:50:16.625Z,31.9
2023-01-12T06:55:19.700Z,31.9
2023-01-12T07:00:19.658Z,31.8
2023-01-12T07:05:16.645Z,31.8
2023-01-12T07:10:19.645Z,31.8
2023-01-12T07:15:19.665Z,31.7
2023-01-12T07:20:19.645Z,31.7
2023-01-12T07:25:16.743Z,31.7
2023-01-12T07:30:19.709Z,31.6
2023-01-12T07:35:16.640Z,31.6
2023-01-12T07:40:16.669Z,31.6
2023-01-12T07:45:19.643Z,31.6
2023-01-12T07:50:16.671Z,31.5
2023-01-12T07:55:16.930Z,31.5
2023-01-12T08:00:16.665Z,31.5
2023-01-12T08:05:19.732Z,31.4
2023-01-12T08:10:19.634Z,31.4
2023-01-12T08:15:19.618Z,31.4
2023-01-12T08:20:19.643Z,31.4
2023-01-12T08:25:16.696Z,31.3
2023-01-12T08:30:19.860Z,31.3
2023-01-12T08:35:16.694Z,31.2
2023-01-12T08:40:19.743Z,31.2
2023-01-12T08:45:16.722Z,31.1
2023-01-12T08:50:16.773Z,31.0
2023-01-12T08:55:16.711Z,30.9
2023-01-12T09:00:16.707Z,30.9
2023-01-12T09:05:16.719Z,30.8
2023-01-12T09:10:16.517Z,30.8
2023-01-12T09:15:16.707Z,30.8
2023-01-12T09:20:19.701Z,30.7
2023-01-12T09:25:16.759Z,30.7
2023-01-12T09:30:19.696Z,30.7
2023-01-12T09:35:19.720Z,30.7
2023-01-12T09:40:19.676Z,30.7
2023-01-12T09:45:19.679Z,30.6
2023-01-12T09:50:16.777Z,30.6
2023-01-12T09:55:16.719Z,30.6
2023-01-12T10:00:19.715Z,30.6
2023-01-12T10:05:19.726Z,30.5
2023-01-12T10:10:19.688Z,30.5
2023-01-12T10:15:19.710Z,30.5
2023-01-12T10:20:18.272Z,30.5
2023-01-12T10:25:19.729Z,30.6
2023-01-12T10:30:19.748Z,30.6
2023-01-12T10:35:16.745Z,30.6
2023-01-12T10:40:19.789Z,30.6
2023-01-12T10:45:19.771Z,30.6
2023-01-12T10:50:16.731Z,30.6
2023-01-12T10:55:16.546Z,30.6
2023-01-12T11:00:19.787Z,30.6
2023-01-12T11:05:16.736Z,30.6
2023-01-12T11:10:20.096Z,30.6
2023-01-12T11:15:19.759Z,30.6
2023-01-12T11:20:16.754Z,30.6
2023-01-12T11:25:19.764Z,30.7
2023-01-12T11:30:19.779Z,30.7
2023-01-12T11:35:19.794Z,30.7
2023-01-12T11:40:19.742Z,30.8
2023-01-12T11:45:16.603Z,30.8
2023-01-12T11:50:19.798Z,30.8
2023-01-12T11:55:16.823Z,30.8
2023-01-12T12:00:16.773Z,30.8
2023-01-12T12:05:19.779Z,30.9
2023-01-12T12:10:19.799Z,30.9
2023-01-12T12:15:19.784Z,30.9
2023-01-12T12:20:19.715Z,31.0
2023-01-12T12:25:16.765Z,31.0
2023-01-12T12:30:19.782Z,31.0
2023-01-12T12:35:19.849Z,31.1
2023-01-12T12:40:19.730Z,31.1
2023-01-12T12:45:16.830Z,31.3
2023-01-12T12:50:19.827Z,31.3
2023-01-12T12:55:19.829Z,31.4
2023-01-12T13:00:19.836Z,31.5
2023-01-12T13:05:16.846Z,31.5
2023-01-12T13:10:19.771Z,31.6
2023-01-12T13:15:16.839Z,31.7
2023-01-12T13:20:25.753Z,31.8
2023-01-12T13:25:16.808Z,31.9
2023-01-12T13:30:19.863Z,31.9
2023-01-12T13:35:19.801Z,32.0
2023-01-12T13:40:16.916Z,32.1
2023-01-12T13:45:20.008Z,32.1
2023-01-12T13:50:16.845Z,32.2
2023-01-12T13:55:19.911Z,32.2
2023-01-12T14:00:19.817Z,32.2
2023-01-12T14:05:16.900Z,32.3
2023-01-12T14:10:19.863Z,32.3
2023-01-12T14:15:19.859Z,32.4
2023-01-12T14:20:16.905Z,32.5
2023-01-12T14:25:19.814Z,32.6
2023-01-12T14:30:19.827Z,32.6
2023-01-12T14:35:19.864Z,32.7
2023-01-12T14:40:16.888Z,32.8
2023-01-12T14:45:19.852Z,33.0
2023-01-12T14:50:19.825Z,33.1
2023-01-12T14:55:19.865Z,33.1
2023-01-12T15:00:19.834Z,33.3
2023-01-12T15:05:19.890Z,33.4
2023-01-12T15:10:19.809Z,33.4
2023-01-12T15:15:16.931Z,33.5
2023-01-12T15:20:19.893Z,33.6
2023-01-12T15:25:19.953Z,33.7
2023-01-12T15:30:19.816Z,33.8
2023-01-12T15:35:16.933Z,33.9
2023-01-12T15:40:19.901Z,33.9
2023-01-12T15:45:19.883Z,34.0
2023-01-12T15:50:19.821Z,34.0
2023-01-12T15:55:19.910Z,34.0
2023-01-12T16:00:19.873Z,34.0
2023-01-12T16:05:16.983Z,34.0
2023-01-12T16:10:16.927Z,34.0
2023-01-12T16:15:16.915Z,34.1
2023-01-12T16:20:19.885Z,34.3
2023-01-12T16:25:19.920Z,34.4
2023-01-12T16:30:19.883Z,34.6
2023-01-12T16:35:16.945Z,34.8
2023-01-12T16:40:16.961Z,35.0
2023-01-12T16:45:19.908Z,35.2
2023-01-12T16:50:19.926Z,35.5
2023-01-12T16:55:16.908Z,35.8
2023-01-12T17:00:16.971Z,36.3
2023-01-12T17:05:16.912Z,36.9
2023-01-12T17:10:19.887Z,37.3
2023-01-12T17:15:16.956Z,37.6
2023-01-12T17:20:19.959Z,37.8
2023-01-12T17:25:16.931Z,38.0
2023-01-12T17:30:19.936Z,38.3
2023-01-12T17:35:19.921Z,38.5
2023-01-12T17:40:19.962Z,38.6
2023-01-12T17:45:19.933Z,38.7
2023-01-12T17:50:19.917Z,38.8
2023-01-12T17:55:16.930Z,38.9
2023-01-12T18:00:20.148Z,39.0
2023-01-12T18:05:19.965Z,39.1
2023-01-12T18:10:19.964Z,39.1
2023-01-12T18:15:16.926Z,39.2
2023-01-12T18:20:20.057Z,39.3
2023-01-12T18:25:19.999Z,39.4
2023-01-12T18:30:19.969Z,39.5
2023-01-12T18:35:16.981Z,39.6
2023-01-12T18:40:20.002Z,39.7
2023-01-12T18:45:20.009Z,39.7
2023-01-12T18:50:19.943Z,39.8
2023-01-12T18:55:16.975Z,39.9
2023-01-12T19:00:20.043Z,40.0
2023-01-12T19:05:19.975Z,40.1
2023-01-12T19:10:17.006Z,40.2
2023-01-12T19:15:19.985Z,40.3
2023-01-12T19:20:19.974Z,40.4
2023-01-12T19:25:17.005Z,40.4
2023-01-12T19:30:19.960Z,40.5
2023-01-12T19:35:16.998Z,40.5
2023-01-12T19:40:19.951Z,40.6
2023-01-12T19:45:19.997Z,40.7
2023-01-12T19:50:17.046Z,40.7
2023-01-12T19:55:19.972Z,40.8
2023-01-12T20:00:20.024Z,40.8
2023-01-12T20:05:17.034Z,40.9
2023-01-12T20:10:19.999Z,40.9
2023-01-12T20:15:19.996Z,41.0
2023-01-12T20:20:19.978Z,41.0
2023-01-12T20:25:16.962Z,41.1
2023-01-12T20:30:32.005Z,41.1
2023-01-12T20:35:20.000Z,41.1
2023-01-12T20:40:20.010Z,41.2
2023-01-12T20:45:20.031Z,41.2
2023-01-12T20:50:20.018Z,41.3
2023-01-12T20:55:17.120Z,41.3
2023-01-12T21:00:20.106Z,41.4
2023-01-12T21:05:20.100Z,41.4
2023-01-12T21:10:17.030Z,41.4
2023-01-12T21:15:17.038Z,41.4
2023-01-12T21:20:20.008Z,41.4
2023-01-12T21:25:20.095Z,41.5
2023-01-12T21:30:20.007Z,41.5
2023-01-12T21:35:17.056Z,41.5
2023-01-12T21:40:17.032Z,41.6
2023-01-12T21:45:20.029Z,41.6
2023-01-12T21:50:20.024Z,41.7
2023-01-12T21:55:20.117Z,41.7
2023-01-12T22:00:17.085Z,41.8
2023-01-12T22:05:20.068Z,41.8
2023-01-12T22:10:20.052Z,41.9
2023-01-12T22:15:20.074Z,41.9
2023-01-12T22:20:17.049Z,42.0
2023-01-12T22:25:16.921Z,42.0
2023-01-12T22:30:20.080Z,42.1
2023-01-12T22:35:20.042Z,42.2
2023-01-12T22:40:20.044Z,42.2
2023-01-12T22:45:20.038Z,42.2
2023-01-12T22:50:20.065Z,42.3
2023-01-12T22:55:20.090Z,42.4
2023-01-12T23:00:20.042Z,42.4
2023-01-12T23:05:16.883Z,42.5
2023-01-12T23:10:17.078Z,42.5
2023-01-12T23:15:17.058Z,42.5
2023-01-12T23:20:17.145Z,42.6
2023-01-12T23:25:17.065Z,42.6
2023-01-12T23:30:17.075Z,42.7
2023-01-12T23:35:20.160Z,42.7
2023-01-12T23:40:20.061Z,42.8
2023-01-12T23:45:20.073Z,42.8
2023-01-12T23:50:20.065Z,42.9
2023-01-12T23:55:20.044Z,42.9
